createdAt,value
2018-10-18T00:02:22.637Z,24.40
2018-10-18T00:04:51.135Z,25.27
2018-10-18T00:07:19.675Z,30.00
2018-10-18T00:09:48.185Z,21.17
2018-10-18T00:12:16.790Z,26.87
2018-10-18T00:14:45.287Z,26.23
2018-10-18T00:17:19.311Z,25.13
2018-10-18T00:19:47.821Z,28.90
2018-10-18T00:22:16.427Z,29.50
2018-10-18T00:24:44.977Z,28.07
2018-10-18T00:27:13.493Z,29.10
2018-10-18T00:29:42.058Z,26.50
2018-10-18T00:32:10.736Z,27.40
2018-10-18T00:34:39.092Z,25.27
2018-10-18T00:37:07.601Z,26.80
2018-10-18T00:39:36.103Z,28.10
2018-10-18T00:42:04.852Z,27.33
2018-10-18T00:44:33.304Z,30.73
2018-10-18T00:47:01.809Z,27.10
2018-10-18T00:49:30.313Z,31.43
2018-10-18T00:51:58.815Z,27.97
2018-10-18T00:54:27.337Z,30.10
2018-10-18T00:56:55.852Z,24.70
2018-10-18T00:59:24.447Z,28.70
2018-10-18T01:01:53.103Z,31.70
2018-10-18T01:04:21.590Z,27.43
2018-10-18T01:06:50.085Z,31.60
2018-10-18T01:09:18.624Z,30.27
2018-10-18T01:11:47.131Z,27.37
2018-10-18T01:14:15.737Z,30.40
2018-10-18T01:16:44.179Z,32.83
2018-10-18T01:19:12.694Z,34.47
2018-10-18T01:21:41.267Z,26.63
2018-10-18T01:24:09.833Z,30.80
2018-10-18T01:26:38.407Z,34.73
2018-10-18T01:29:06.911Z,29.00
2018-10-18T01:31:35.444Z,34.07
2018-10-18T01:34:03.987Z,33.90
2018-10-18T01:36:32.701Z,35.10
2018-10-18T01:39:01.463Z,33.37
2018-10-18T01:41:30.071Z,35.37
2018-10-18T01:43:58.704Z,33.10
2018-10-18T01:46:27.383Z,34.53
2018-10-18T01:48:55.990Z,33.90
2018-10-18T01:51:24.638Z,33.07
2018-10-18T01:53:53.255Z,34.57
2018-10-18T01:56:21.875Z,41.37
2018-10-18T01:58:50.558Z,32.27
2018-10-18T02:01:19.175Z,39.50
2018-10-18T02:03:47.814Z,36.87
2018-10-18T02:06:16.534Z,32.60
2018-10-18T02:08:45.158Z,34.43
2018-10-18T02:11:13.747Z,35.77
2018-10-18T02:13:42.579Z,32.43
2018-10-18T02:16:11.154Z,34.80
2018-10-18T02:18:39.945Z,34.03
2018-10-18T02:21:08.662Z,32.27
2018-10-18T02:23:37.259Z,29.30
2018-10-18T02:26:06.259Z,31.03
2018-10-18T02:28:34.842Z,31.57
2018-10-18T02:31:03.461Z,25.70
2018-10-18T02:33:32.095Z,30.30
2018-10-18T02:36:00.790Z,36.30
2018-10-18T02:38:29.371Z,28.63
2018-10-18T02:40:58.715Z,35.37
2018-10-18T02:43:27.416Z,45.40
2018-10-18T02:45:56.719Z,43.83
2018-10-18T02:48:25.362Z,28.00
2018-10-18T02:50:54.022Z,37.60
2018-10-18T02:53:23.412Z,30.77
2018-10-18T02:55:52.022Z,34.30
2018-10-18T02:58:21.483Z,35.70
2018-10-18T03:00:50.104Z,32.27
2018-10-18T03:03:18.685Z,33.53
2018-10-18T03:05:47.293Z,33.20
2018-10-18T03:08:15.928Z,39.40
2018-10-18T03:10:44.507Z,34.57
2018-10-18T03:13:13.122Z,36.30
2018-10-18T03:15:41.720Z,28.70
2018-10-18T03:18:10.771Z,39.83
2018-10-18T03:20:39.412Z,39.97
2018-10-18T03:23:08.265Z,33.70
2018-10-18T03:25:36.849Z,36.10
2018-10-18T03:28:05.791Z,35.27
2018-10-18T03:30:34.401Z,35.57
2018-10-18T03:33:03.248Z,36.80
2018-10-18T03:35:31.883Z,30.03
2018-10-18T03:38:00.492Z,42.73
2018-10-18T03:40:29.234Z,34.83
2018-10-18T03:42:57.855Z,36.43
2018-10-18T03:45:26.842Z,38.63
2018-10-18T03:47:55.767Z,37.40
2018-10-18T03:50:24.367Z,29.83
2018-10-18T03:52:52.976Z,30.70
2018-10-18T03:55:21.640Z,34.87
2018-10-18T03:57:50.891Z,36.13
2018-10-18T04:00:19.557Z,34.03
2018-10-18T04:02:48.128Z,29.37
2018-10-18T04:05:16.734Z,32.33
2018-10-18T04:07:45.381Z,37.67
2018-10-18T04:10:14.023Z,38.77
2018-10-18T04:12:42.673Z,39.93
2018-10-18T04:15:11.268Z,40.30
2018-10-18T04:17:39.875Z,30.53
2018-10-18T04:20:08.795Z,39.33
2018-10-18T04:22:37.426Z,30.17
2018-10-18T04:25:06.676Z,37.73
2018-10-18T04:27:35.336Z,36.83
2018-10-18T04:30:04.015Z,38.27
2018-10-18T04:32:32.648Z,31.00
2018-10-18T04:35:01.283Z,33.57
2018-10-18T04:37:29.979Z,34.40
2018-10-18T04:39:59.274Z,35.83
2018-10-18T04:42:27.895Z,45.07
2018-10-18T04:44:56.556Z,40.80
2018-10-18T04:47:25.226Z,32.87
2018-10-18T04:49:53.808Z,37.17
2018-10-18T04:52:22.438Z,45.80
2018-10-18T04:54:51.084Z,34.20
2018-10-18T04:57:19.688Z,41.33
2018-10-18T04:59:48.394Z,34.57
2018-10-18T05:02:18.029Z,45.00
2018-10-18T05:04:58.135Z,44.23
2018-10-18T05:07:27.054Z,44.17
2018-10-18T05:09:56.872Z,36.03
2018-10-18T05:12:25.544Z,43.43
2018-10-18T05:14:54.169Z,40.10
2018-10-18T05:17:22.776Z,41.50
2018-10-18T05:19:52.116Z,40.93
2018-10-18T05:22:20.726Z,38.77
2018-10-18T05:24:49.381Z,40.67
2018-10-18T05:27:18.850Z,43.43
2018-10-18T05:29:47.490Z,46.10
2018-10-18T05:32:16.101Z,43.50
2018-10-18T05:34:44.701Z,43.90
2018-10-18T05:37:13.351Z,43.57
2018-10-18T05:39:42.663Z,39.77
2018-10-18T05:42:11.291Z,40.23
2018-10-18T05:44:40.426Z,43.90
2018-10-18T05:47:09.092Z,41.60
2018-10-18T05:49:37.745Z,41.83
2018-10-18T05:52:06.469Z,35.60
2018-10-18T05:54:35.204Z,45.27
2018-10-18T05:57:04.192Z,38.90
2018-10-18T05:59:33.853Z,37.97
2018-10-18T06:02:02.871Z,41.73
2018-10-18T06:04:32.210Z,42.47
2018-10-18T06:07:00.974Z,44.90
2018-10-18T06:09:31.561Z,46.20
2018-10-18T06:12:00.504Z,45.30
2018-10-18T06:14:29.358Z,41.73
2018-10-18T06:16:58.332Z,44.07
2018-10-18T06:19:28.226Z,42.57
2018-10-18T06:21:57.044Z,37.33
2018-10-18T06:24:26.558Z,45.03
2018-10-18T06:26:55.310Z,50.37
2018-10-18T06:29:24.079Z,43.13
2018-10-18T06:31:52.706Z,43.57
2018-10-18T06:34:21.684Z,39.20
2018-10-18T06:36:50.559Z,37.47
2018-10-18T06:39:20.094Z,44.43
2018-10-18T06:41:49.503Z,40.97
2018-10-18T06:44:18.581Z,37.43
2018-10-18T06:46:47.991Z,50.80
2018-10-18T06:49:16.800Z,41.17
2018-10-18T06:51:45.563Z,51.63
2018-10-18T06:54:14.547Z,41.67
2018-10-18T06:56:43.319Z,41.43
2018-10-18T06:59:12.164Z,41.57
2018-10-18T07:01:40.983Z,44.07
2018-10-18T07:04:09.596Z,51.57
2018-10-18T07:06:39.873Z,50.23
2018-10-18T07:09:10.440Z,50.37
2018-10-18T07:11:39.325Z,36.90
2018-10-18T07:14:07.959Z,49.30
2018-10-18T07:16:36.906Z,46.27
2018-10-18T07:19:06.183Z,38.37
2018-10-18T07:21:35.082Z,50.43
2018-10-18T07:24:03.915Z,53.47
2018-10-18T07:26:32.736Z,42.67
2018-10-18T07:29:02.175Z,53.80
2018-10-18T07:31:31.078Z,46.70
2018-10-18T07:33:59.939Z,63.90
2018-10-18T07:36:28.935Z,61.63
2018-10-18T07:38:57.830Z,75.33
2018-10-18T07:41:27.068Z,70.50
2018-10-18T07:43:55.935Z,56.60
2018-10-18T07:46:24.794Z,58.23
2018-10-18T07:48:53.483Z,58.50
2018-10-18T07:51:22.843Z,76.47
2018-10-18T07:53:51.816Z,73.57
2018-10-18T07:56:20.647Z,85.23
2018-10-18T07:58:49.619Z,65.33
2018-10-18T08:01:18.449Z,85.37
2018-10-18T08:03:47.323Z,78.40
2018-10-18T08:06:16.043Z,76.50
2018-10-18T08:08:44.727Z,72.47
2018-10-18T08:11:13.660Z,63.83
2018-10-18T08:13:42.561Z,87.00
2018-10-18T08:16:11.724Z,78.60
2018-10-18T08:18:40.619Z,74.17
2018-10-18T08:21:10.017Z,61.57
2018-10-18T08:23:38.731Z,65.47
2018-10-18T08:26:07.577Z,67.20
2018-10-18T08:28:36.464Z,52.33
2018-10-18T08:31:05.340Z,74.90
2018-10-18T08:33:34.260Z,75.67
2018-10-18T08:36:03.198Z,66.80
2018-10-18T08:38:32.639Z,61.63
2018-10-18T08:41:01.400Z,69.90
2018-10-18T08:43:30.076Z,73.93
2018-10-18T08:45:59.581Z,69.67
2018-10-18T08:48:28.192Z,81.90
2018-10-18T08:50:56.932Z,52.27
2018-10-18T08:53:25.743Z,45.43
2018-10-18T08:55:54.454Z,49.67
2018-10-18T08:58:24.008Z,60.33
2018-10-18T09:00:52.882Z,51.83
2018-10-18T09:03:23.139Z,68.07
2018-10-18T09:05:51.967Z,58.77
2018-10-18T09:08:20.724Z,43.17
2018-10-18T09:10:49.548Z,55.57
2018-10-18T09:13:18.261Z,52.40
2018-10-18T09:15:46.990Z,64.67
2018-10-18T09:18:15.768Z,61.10
2018-10-18T09:20:44.691Z,66.40
2018-10-18T09:23:14.072Z,63.63
2018-10-18T09:25:43.094Z,58.97
2018-10-18T09:28:11.918Z,60.37
2018-10-18T09:30:40.646Z,59.47
2018-10-18T09:33:09.507Z,64.77
2018-10-18T09:35:38.309Z,51.03
2018-10-18T09:38:08.380Z,35.83
2018-10-18T09:40:37.631Z,53.47
2018-10-18T09:43:06.649Z,47.47
2018-10-18T09:45:35.325Z,36.73
2018-10-18T09:48:04.000Z,45.57
2018-10-18T09:50:33.002Z,40.57
2018-10-18T09:53:01.819Z,47.23
2018-10-18T09:55:34.260Z,42.23
2018-10-18T09:58:04.376Z,42.17
2018-10-18T10:00:39.404Z,37.77
2018-10-18T10:03:11.867Z,55.83
2018-10-18T10:05:40.770Z,44.80
2018-10-18T10:08:09.616Z,41.77
2018-10-18T10:10:38.663Z,59.87
2018-10-18T10:13:08.732Z,51.53
2018-10-18T10:15:38.468Z,56.30
2018-10-18T10:18:07.431Z,55.27
2018-10-18T10:20:36.020Z,62.60
2018-10-18T10:23:04.883Z,51.93
2018-10-18T10:25:33.635Z,49.17
2018-10-18T10:28:02.452Z,49.10
2018-10-18T10:30:31.998Z,41.07
2018-10-18T10:33:00.775Z,46.10
2018-10-18T10:35:29.686Z,66.67
2018-10-18T10:37:59.091Z,37.63
2018-10-18T10:40:27.793Z,48.03
2018-10-18T10:42:56.560Z,44.73
2018-10-18T10:45:25.319Z,46.57
2018-10-18T10:47:54.124Z,56.63
2018-10-18T10:50:23.727Z,50.13
2018-10-18T10:52:53.460Z,40.87
2018-10-18T10:55:22.255Z,47.03
2018-10-18T10:57:51.035Z,46.43
2018-10-18T11:00:41.802Z,66.87
2018-10-18T11:03:11.331Z,64.50
2018-10-18T11:05:40.123Z,51.10
2018-10-18T11:08:08.913Z,44.67
2018-10-18T11:10:37.718Z,57.57
2018-10-18T11:13:06.599Z,53.03
2018-10-18T11:15:36.424Z,39.47
2018-10-18T11:18:05.601Z,47.50
2018-10-18T11:20:34.500Z,54.80
2018-10-18T11:23:03.838Z,43.13
2018-10-18T11:25:33.266Z,49.60
2018-10-18T11:28:02.176Z,63.87
2018-10-18T11:30:30.998Z,33.20
2018-10-18T11:33:00.023Z,35.03
2018-10-18T11:35:28.914Z,31.00
2018-10-18T11:37:57.726Z,53.07
2018-10-18T11:40:26.539Z,52.80
2018-10-18T11:42:55.233Z,54.83
2018-10-18T11:45:24.692Z,40.27
2018-10-18T11:47:53.562Z,36.40
2018-10-18T11:50:22.433Z,37.40
2018-10-18T11:52:51.312Z,44.90
2018-10-18T11:55:20.133Z,47.23
2018-10-18T11:57:48.771Z,48.83
2018-10-18T12:00:19.417Z,30.23
2018-10-18T12:02:49.462Z,41.97
2018-10-18T12:05:18.303Z,47.93
2018-10-18T12:07:47.107Z,33.20
2018-10-18T12:10:15.759Z,39.87
2018-10-18T12:12:45.419Z,36.37
2018-10-18T12:15:14.842Z,36.57
2018-10-18T12:17:43.658Z,35.80
2018-10-18T12:20:13.782Z,40.63
2018-10-18T12:22:43.127Z,41.07
2018-10-18T12:25:12.639Z,31.10
2018-10-18T12:27:41.927Z,36.80
2018-10-18T12:30:11.268Z,37.10
2018-10-18T12:32:40.114Z,30.40
2018-10-18T12:35:09.208Z,37.10
2018-10-18T12:37:38.354Z,31.70
2018-10-18T12:40:08.343Z,41.13
2018-10-18T12:42:38.739Z,37.33
2018-10-18T12:45:08.791Z,39.67
2018-10-18T12:47:37.478Z,38.87
2018-10-18T12:50:06.837Z,22.17
2018-10-18T12:52:35.740Z,31.80
2018-10-18T12:55:04.596Z,31.20
2018-10-18T12:57:33.411Z,29.20
2018-10-18T13:00:02.440Z,30.10
2018-10-18T13:02:31.391Z,29.40
2018-10-18T13:05:00.802Z,33.73
2018-10-18T13:07:29.593Z,35.60
2018-10-18T13:09:58.464Z,35.73
2018-10-18T13:12:27.362Z,28.50
2018-10-18T13:14:56.060Z,35.63
2018-10-18T13:17:24.832Z,36.37
2018-10-18T13:19:54.548Z,35.80
2018-10-18T13:22:23.379Z,29.00
2018-10-18T13:24:52.335Z,27.70
2018-10-18T13:27:21.808Z,33.77
2018-10-18T13:29:50.556Z,28.03
2018-10-18T13:32:19.393Z,26.53
2018-10-18T13:34:48.244Z,32.30
2018-10-18T13:37:18.600Z,22.90
2018-10-18T13:39:47.489Z,24.03
2018-10-18T13:42:17.102Z,29.80
2018-10-18T13:44:45.986Z,20.10
2018-10-18T13:47:15.678Z,32.33
2018-10-18T13:49:44.496Z,20.00
2018-10-18T13:52:13.127Z,21.47
2018-10-18T13:54:41.778Z,25.47
2018-10-18T13:57:10.578Z,25.53
2018-10-18T13:59:50.629Z,25.83
2018-10-18T14:02:19.571Z,21.10
2018-10-18T14:04:48.897Z,24.90
2018-10-18T14:07:17.695Z,26.43
2018-10-18T14:09:46.587Z,31.20
2018-10-18T14:12:16.107Z,24.50
2018-10-18T14:14:44.890Z,23.17
2018-10-18T14:17:13.695Z,27.63
2018-10-18T14:19:42.471Z,26.37
2018-10-18T14:22:11.347Z,27.17
2018-10-18T14:24:40.743Z,28.37
2018-10-18T14:27:09.627Z,30.80
2018-10-18T14:29:38.403Z,25.90
2018-10-18T14:32:07.409Z,22.57
2018-10-18T14:34:36.063Z,22.73
2018-10-18T14:37:05.466Z,24.57
2018-10-18T14:39:34.215Z,18.73
2018-10-18T14:42:02.887Z,22.03
2018-10-18T14:44:31.811Z,27.47
2018-10-18T14:47:00.493Z,24.77
2018-10-18T14:49:30.149Z,21.67
2018-10-18T14:51:59.062Z,25.53
2018-10-18T14:54:27.816Z,22.53
2018-10-18T14:56:56.725Z,18.07
2018-10-18T14:59:25.519Z,20.40
2018-10-18T15:01:54.357Z,23.63
2018-10-18T15:04:23.145Z,28.27
2018-10-18T15:06:52.011Z,14.10
2018-10-18T15:09:21.679Z,15.67
2018-10-18T15:11:50.502Z,13.93
2018-10-18T15:14:19.345Z,23.90
2018-10-18T15:16:48.166Z,18.53
2018-10-18T15:19:17.874Z,21.20
2018-10-18T15:21:46.848Z,20.40
2018-10-18T15:24:15.656Z,18.20
2018-10-18T15:26:44.555Z,15.20
2018-10-18T15:29:13.438Z,13.63
2018-10-18T15:31:42.215Z,20.93
2018-10-18T15:34:11.181Z,20.73
2018-10-18T15:36:40.195Z,15.67
2018-10-18T15:39:10.548Z,17.13
2018-10-18T15:41:39.962Z,17.63
2018-10-18T15:44:08.977Z,17.13
2018-10-18T15:46:38.515Z,16.67
2018-10-18T15:49:07.752Z,19.47
2018-10-18T15:51:37.435Z,25.87
2018-10-18T15:54:06.861Z,35.67
2018-10-18T15:56:35.856Z,30.13
2018-10-18T15:59:04.847Z,39.03
2018-10-18T16:01:33.751Z,36.90
2018-10-18T16:04:03.866Z,35.30
2018-10-18T16:06:32.634Z,24.80
2018-10-18T16:09:01.420Z,24.13
2018-10-18T16:11:30.282Z,26.83
2018-10-18T16:13:58.869Z,41.20
2018-10-18T16:16:27.778Z,32.20
2018-10-18T16:18:56.751Z,43.53
2018-10-18T16:21:26.104Z,40.53
2018-10-18T16:23:55.046Z,44.70
2018-10-18T16:26:24.377Z,44.53
2018-10-18T16:28:53.063Z,56.03
2018-10-18T16:31:22.021Z,53.10
2018-10-18T16:33:50.966Z,47.47
2018-10-18T16:36:19.829Z,54.23
2018-10-18T16:38:48.716Z,52.67
2018-10-18T16:41:17.556Z,47.17
2018-10-18T16:43:46.232Z,46.90
2018-10-18T16:46:15.463Z,52.63
2018-10-18T16:48:44.448Z,44.73
2018-10-18T16:51:13.404Z,44.40
2018-10-18T16:53:43.263Z,44.50
2018-10-18T16:56:12.271Z,52.20
2018-10-18T16:58:40.871Z,48.27
2018-10-18T17:01:10.521Z,56.90
2018-10-18T17:03:39.447Z,47.17
2018-10-18T17:06:08.218Z,55.63
2018-10-18T17:08:37.650Z,58.30
2018-10-18T17:11:06.515Z,57.37
2018-10-18T17:13:35.502Z,59.10
2018-10-18T17:16:04.536Z,57.83
2018-10-18T17:18:33.389Z,53.83
2018-10-18T17:21:02.420Z,55.67
2018-10-18T17:23:31.279Z,55.27
2018-10-18T17:26:00.566Z,67.73
2018-10-18T17:28:29.308Z,64.33
2018-10-18T17:30:57.937Z,60.73
2018-10-18T17:33:26.863Z,59.40
2018-10-18T17:35:56.834Z,64.70
2018-10-18T17:38:25.751Z,57.17
2018-10-18T17:40:54.714Z,63.60
2018-10-18T17:43:23.416Z,63.87
2018-10-18T17:45:52.355Z,65.57
2018-10-18T17:48:21.173Z,53.40
2018-10-18T17:50:49.944Z,67.63
2018-10-18T17:53:19.441Z,75.30
2018-10-18T17:55:48.255Z,64.00
2018-10-18T17:58:17.155Z,73.33
2018-10-18T18:00:46.564Z,70.37
2018-10-18T18:03:15.475Z,73.63
2018-10-18T18:05:44.366Z,73.20
2018-10-18T18:08:13.528Z,65.10
2018-10-18T18:10:42.224Z,74.57
2018-10-18T18:13:12.369Z,65.90
2018-10-18T18:15:41.280Z,76.23
2018-10-18T18:18:10.175Z,76.00
2018-10-18T18:20:39.763Z,51.23
2018-10-18T18:23:08.938Z,68.97
2018-10-18T18:25:37.768Z,57.80
2018-10-18T18:28:06.373Z,73.27
2018-10-18T18:30:35.002Z,66.63
2018-10-18T18:33:03.701Z,55.60
2018-10-18T18:35:32.268Z,52.50
2018-10-18T18:38:00.911Z,75.30
2018-10-18T18:40:29.532Z,60.93
2018-10-18T18:42:58.179Z,68.53
2018-10-18T18:45:31.054Z,64.60
2018-10-18T18:47:59.722Z,60.23
2018-10-18T18:50:28.311Z,69.47
2018-10-18T18:52:57.081Z,55.57
2018-10-18T18:55:25.821Z,73.00
2018-10-18T18:57:55.055Z,65.70
2018-10-18T19:00:23.682Z,63.60
2018-10-18T19:02:52.394Z,52.90
2018-10-18T19:05:21.035Z,47.77
2018-10-18T19:07:49.690Z,50.57
2018-10-18T19:10:18.959Z,56.67
2018-10-18T19:12:47.572Z,70.90
2018-10-18T19:15:16.268Z,56.60
2018-10-18T19:17:44.988Z,68.93
2018-10-18T19:20:13.718Z,64.60
2018-10-18T19:22:42.789Z,63.93
2018-10-18T19:25:11.500Z,70.37
2018-10-18T19:27:40.334Z,73.27
2018-10-18T19:30:11.104Z,61.17
2018-10-18T19:32:39.848Z,61.80
2018-10-18T19:35:08.571Z,78.33
2018-10-18T19:37:37.835Z,65.03
2018-10-18T19:40:07.749Z,72.73
2018-10-18T19:42:37.293Z,79.93
2018-10-18T19:45:07.258Z,75.73
2018-10-18T19:47:36.471Z,65.40
2018-10-18T19:50:05.722Z,58.60
2018-10-18T19:52:34.532Z,90.57
2018-10-18T19:55:03.229Z,81.50
2018-10-18T19:57:32.009Z,74.53
2018-10-18T20:00:00.731Z,62.27
2018-10-18T20:02:29.664Z,81.07
2018-10-18T20:04:58.304Z,95.50
2018-10-18T20:07:26.950Z,92.63
2018-10-18T20:09:55.581Z,91.97
2018-10-18T20:12:24.191Z,90.17
2018-10-18T20:14:52.892Z,89.30
2018-10-18T20:17:21.530Z,71.07
2018-10-18T20:19:50.212Z,74.90
2018-10-18T20:22:19.799Z,74.20
2018-10-18T20:24:48.622Z,78.57
2018-10-18T20:27:17.224Z,91.07
2018-10-18T20:29:45.842Z,78.50
2018-10-18T20:32:14.557Z,80.53
2018-10-18T20:34:43.194Z,72.37
2018-10-18T20:37:12.074Z,72.93
2018-10-18T20:39:40.962Z,68.77
2018-10-18T20:42:09.540Z,69.93
2018-10-18T20:44:38.912Z,55.17
2018-10-18T20:47:07.561Z,59.97
2018-10-18T20:49:36.218Z,62.40
2018-10-18T20:52:05.387Z,81.47
2018-10-18T20:54:34.091Z,64.00
2018-10-18T20:57:02.744Z,84.07
2018-10-18T20:59:31.386Z,71.93
2018-10-18T21:02:00.190Z,75.80
2018-10-18T21:04:28.908Z,54.93
2018-10-18T21:06:57.744Z,58.87
2018-10-18T21:09:26.971Z,69.57
2018-10-18T21:11:56.947Z,72.20
2018-10-18T21:14:25.559Z,68.47
2018-10-18T21:16:54.176Z,47.30
2018-10-18T21:19:24.094Z,49.30
2018-10-18T21:21:53.129Z,55.97
2018-10-18T21:24:21.701Z,54.90
2018-10-18T21:26:50.974Z,80.47
2018-10-18T21:29:19.626Z,69.43
2018-10-18T21:31:48.303Z,55.23
2018-10-18T21:34:16.991Z,82.20
2018-10-18T21:36:45.735Z,59.93
2018-10-18T21:39:37.059Z,73.20
2018-10-18T21:42:05.839Z,70.80
2018-10-18T21:44:36.159Z,68.27
2018-10-18T21:47:05.096Z,78.13
2018-10-18T21:49:33.807Z,61.77
2018-10-18T21:52:02.488Z,58.97
2018-10-18T21:54:31.279Z,95.07
2018-10-18T21:57:00.192Z,101.17
2018-10-18T21:59:29.018Z,63.73
2018-10-18T22:01:57.735Z,99.37
2018-10-18T22:04:26.434Z,103.97
2018-10-18T22:06:55.120Z,93.60
2018-10-18T22:09:23.930Z,112.20
2018-10-18T22:11:52.582Z,91.47
2018-10-18T22:14:21.301Z,96.13
2018-10-18T22:16:50.683Z,82.60
2018-10-18T22:19:19.720Z,112.20
2018-10-18T22:21:48.556Z,100.60
2018-10-18T22:24:17.195Z,121.83
2018-10-18T22:26:46.014Z,101.83
2018-10-18T22:29:14.746Z,132.33
2018-10-18T22:31:43.423Z,78.33
2018-10-18T22:34:12.329Z,96.90
2018-10-18T22:36:41.046Z,122.90
2018-10-18T22:39:11.103Z,89.73
2018-10-18T22:41:40.231Z,125.13
2018-10-18T22:44:09.592Z,101.93
2018-10-18T22:46:38.283Z,132.00
2018-10-18T22:49:07.178Z,100.30
2018-10-18T22:51:36.131Z,94.87
2018-10-18T22:54:05.157Z,93.13
2018-10-18T22:56:33.783Z,117.37
2018-10-18T22:59:02.465Z,114.40
2018-10-18T23:01:31.786Z,75.17
2018-10-18T23:04:00.442Z,88.00
2018-10-18T23:06:29.143Z,134.27
2018-10-18T23:08:57.900Z,129.27
2018-10-18T23:11:26.532Z,173.87
2018-10-18T23:13:55.170Z,168.10
2018-10-18T23:16:23.883Z,122.17
2018-10-18T23:18:52.638Z,153.77
2018-10-18T23:21:22.175Z,101.33
2018-10-18T23:23:50.793Z,113.40
2018-10-18T23:26:19.460Z,132.87
2018-10-18T23:28:48.119Z,106.23
2018-10-18T23:31:18.011Z,116.33
2018-10-18T23:33:46.660Z,93.60
2018-10-18T23:36:15.262Z,82.57
2018-10-18T23:38:43.926Z,82.53
2018-10-18T23:41:13.198Z,136.33
2018-10-18T23:43:42.222Z,126.10
2018-10-18T23:46:11.444Z,113.57
2018-10-18T23:48:40.100Z,109.70
2018-10-18T23:51:08.837Z,113.63
2018-10-18T23:53:37.411Z,90.93
2018-10-18T23:56:06.092Z,94.40
2018-10-18T23:58:34.722Z,82.67
